Time;durP1;ratioP1;P1;durP2;ratioP2;P2;SDS_P1;SDS_P2;PMS_P1;PMS_P2;Temp;Humidity;BMP_temperature;BMP_pressure;BME280_temperature;BME280_humidity;BME280_pressure;Samples;Min_cycle;Max_cycle;Signal;HPM_P1;HPM_P2
2023/01/26 00:01:44;;;;;;;;;;;2.20;99.90;;;;;;4981441;29;20011;-84
2023/01/26 00:04:10;;;;;;;12.73;6.97;;;2.30;99.90;;;;;;4980613;28;19895;-84
2023/01/26 00:06:36;;;;;;;16.75;7.53;;;2.40;99.90;;;;;;4980903;28;20067;-84
2023/01/26 00:09:02;;;;;;;;;;;2.30;99.90;;;;;;4980877;28;20030;-83
2023/01/26 00:11:29;;;;;;;16.05;7.65;;;2.30;99.90;;;;;;4981158;28;19895;-83
2023/01/26 00:13:59;;;;;;;16.35;9.20;;;2.30;99.90;;;;;;4980347;28;20026;-84
2023/01/26 00:16:26;;;;;;;11.23;6.82;;;2.20;99.90;;;;;;4980698;28;20039;-84
2023/01/26 00:18:52;;;;;;;15.73;7.10;;;2.30;99.90;;;;;;4980918;28;20019;-83
2023/01/26 00:21:23;;;;;;;14.90;7.75;;;2.30;99.90;;;;;;4979925;28;20416;-84
2023/01/26 00:23:50;;;;;;;12.93;7.43;;;2.20;99.90;;;;;;4980439;28;20061;-82
2023/01/26 00:26:22;;;;;;;19.27;8.60;;;2.20;99.90;;;;;;4980333;28;20012;-84
2023/01/26 00:28:48;;;;;;;22.52;9.25;;;2.20;99.90;;;;;;4980510;28;20026;-80
2023/01/26 00:31:16;;;;;;;20.20;8.77;;;2.10;99.90;;;;;;4980458;28;20091;-84
2023/01/26 00:33:42;;;;;;;14.40;8.98;;;2.10;99.90;;;;;;4980203;28;20027;-82
2023/01/26 00:36:08;;;;;;;;;;;2.20;99.90;;;;;;4981215;28;20089;-84
2023/01/26 00:38:33;;;;;;;18.20;8.88;;;2.20;99.90;;;;;;4980419;28;19895;-84
2023/01/26 00:40:59;;;;;;;;;;;2.10;99.90;;;;;;4979818;28;20033;-83
2023/01/26 00:43:25;;;;;;;15.95;8.60;;;2.10;99.90;;;;;;4978492;29;19902;-83
2023/01/26 00:45:51;;;;;;;;;;;2.20;99.90;;;;;;4978607;29;20063;-84
2023/01/26 00:48:17;;;;;;;15.13;7.97;;;2.20;99.90;;;;;;4978706;28;19914;-83
2023/01/26 00:50:43;;;;;;;;;;;2.20;99.90;;;;;;4978250;29;20042;-83
2023/01/26 00:53:09;;;;;;;13.38;7.60;;;2.10;99.90;;;;;;4979677;28;19894;-84
2023/01/26 00:55:35;;;;;;;16.52;8.07;;;2.20;99.90;;;;;;4978470;28;20018;-84
2023/01/26 00:58:02;;;;;;;;;;;2.20;99.90;;;;;;4980460;28;20011;-82
2023/01/26 01:00:28;;;;;;;15.63;7.88;;;2.20;99.90;;;;;;4978460;28;19919;-82
2023/01/26 01:02:56;;;;;;;13.57;6.90;;;2.20;99.90;;;;;;4977027;29;20031;-84
2023/01/26 01:05:24;;;;;;;10.55;6.25;;;2.20;99.90;;;;;;4976985;28;20051;-81
2023/01/26 01:07:51;;;;;;;12.00;5.72;;;2.20;99.90;;;;;;4977097;29;20032;-82
2023/01/26 01:10:17;;;;;;;10.85;5.47;;;2.10;99.90;;;;;;4980550;28;20039;-81
2023/01/26 01:12:43;;;;;;;;;;;2.20;99.90;;;;;;4983408;29;20027;-81
2023/01/26 01:15:09;;;;;;;10.40;5.32;;;2.10;99.90;;;;;;4983124;29;19897;-83
2023/01/26 01:17:36;;;;;;;8.15;5.05;;;2.10;99.90;;;;;;4982908;29;20043;-82
2023/01/26 01:20:06;;;;;;;12.57;6.13;;;2.10;99.90;;;;;;4982574;28;20031;-83
2023/01/26 01:22:33;;;;;;;11.63;5.85;;;2.10;99.90;;;;;;4981958;29;20023;-83
2023/01/26 01:24:59;;;;;;;10.50;4.75;;;2.10;99.90;;;;;;4981555;28;20083;-81
2023/01/26 01:27:24;;;;;;;;;;;2.10;99.90;;;;;;4982172;28;20027;-81
2023/01/26 01:29:51;;;;;;;10.40;5.45;;;2.10;99.90;;;;;;4965681;29;19914;-84
2023/01/26 01:32:18;;;;;;;8.65;5.07;;;2.00;99.90;;;;;;4981583;29;20015;-84
2023/01/26 01:34:46;;;;;;;13.60;7.47;;;2.10;99.90;;;;;;4982024;28;20050;-82
2023/01/26 01:37:12;;;;;;;13.73;7.13;;;2.10;99.90;;;;;;4981492;29;20047;-84
2023/01/26 01:39:38;;;;;;;;;;;2.10;99.90;;;;;;4982612;28;20034;-82
2023/01/26 01:42:07;;;;;;;13.30;7.15;;;2.10;99.90;;;;;;4983037;29;19906;-84
2023/01/26 01:44:37;;;;;;;11.98;6.30;;;2.20;99.90;;;;;;4982836;28;20011;-81
2023/01/26 01:47:25;;;;;;;12.52;6.20;;;2.20;99.90;;;;;;4983983;28;20047;-81
2023/01/26 01:49:52;;;;;;;11.63;5.38;;;2.10;99.90;;;;;;4983500;28;20102;-81
2023/01/26 01:52:25;;;;;;;13.85;6.97;;;2.30;99.90;;;;;;4983906;28;20007;-82
2023/01/26 01:55:00;;;;;;;15.48;6.63;;;2.30;99.90;;;;;;4983401;28;20015;-82
2023/01/26 01:57:30;;;;;;;12.52;6.15;;;2.20;99.90;;;;;;4983954;28;20012;-83
2023/01/26 02:00:05;;;;;;;14.27;7.53;;;2.20;99.90;;;;;;4983120;28;20108;-81
2023/01/26 02:02:32;;;;;;;14.90;7.05;;;2.20;99.90;;;;;;4982329;28;20031;-84
2023/01/26 02:05:06;;;;;;;14.52;6.65;;;2.20;99.90;;;;;;4982908;28;20039;-83
2023/01/26 02:07:32;;;;;;;14.65;7.63;;;2.30;99.90;;;;;;4983523;28;20012;-81
2023/01/26 02:10:18;;;;;;;11.55;6.57;;;2.30;99.90;;;;;;4983009;28;20038;-84
2023/01/26 02:12:46;;;;;;;14.30;7.10;;;2.30;99.90;;;;;;4983437;28;20016;-80
2023/01/26 02:15:12;;;;;;;17.98;8.23;;;2.40;99.90;;;;;;4983502;28;20019;-82
2023/01/26 02:17:41;;;;;;;15.13;7.80;;;2.40;99.90;;;;;;4982980;28;20042;-82
2023/01/26 02:20:17;;;;;;;15.68;8.32;;;2.30;99.90;;;;;;4983331;28;20019;-83
2023/01/26 02:22:49;;;;;;;14.95;7.32;;;2.30;99.90;;;;;;4983289;28;20022;-82
2023/01/26 02:25:41;;;;;;;14.05;7.85;;;2.20;99.90;;;;;;4983138;28;20007;-84
2023/01/26 02:28:07;;;;;;;14.18;7.00;;;2.20;99.90;;;;;;4983412;28;20038;-83
2023/01/26 02:30:33;;;;;;;;;;;2.30;99.90;;;;;;4983677;28;20070;-83
2023/01/26 02:32:59;;;;;;;13.52;6.75;;;2.40;99.90;;;;;;4982240;28;19895;-84
2023/01/26 02:35:24;;;;;;;;;;;2.40;99.90;;;;;;4983521;28;20011;-84
2023/01/26 02:37:50;;;;;;;14.60;7.15;;;2.30;99.90;;;;;;4982686;28;19941;-83
2023/01/26 03:28:59;;;;;;;12.27;6.72;;;2.10;99.90;;;;;;5020074;28;20053;-84
2023/01/26 03:31:24;;;;;;;;;;;2.10;99.90;;;;;;5018769;28;20014;-84
2023/01/26 03:33:50;;;;;;;13.05;7.95;;;2.10;99.90;;;;;;5018933;28;19913;-84
2023/01/26 03:36:16;;;;;;;;;;;2.10;99.90;;;;;;5019166;28;20023;-85
2023/01/26 03:38:42;;;;;;;17.13;8.30;;;2.10;99.90;;;;;;5019376;28;19917;-84
2023/01/26 03:57:33;;;;;;;13.10;7.43;;;2.00;99.90;;;;;;5019662;28;20037;-83
2023/01/26 03:59:59;;;;;;;;;;;2.00;99.90;;;;;;5019121;28;20014;-85
2023/01/26 04:10:38;;;;;;;13.48;7.93;;;1.90;99.90;;;;;;5019999;28;20109;-84
2023/01/26 04:21:29;;;;;;;14.02;7.63;;;2.00;99.90;;;;;;5017790;28;20094;-84
2023/01/26 04:23:56;;;;;;;14.05;7.72;;;2.00;99.90;;;;;;5018416;28;20037;-84
2023/01/26 04:26:24;;;;;;;15.50;7.90;;;1.90;99.90;;;;;;5018727;28;20017;-84
2023/01/26 04:28:50;;;;;;;15.20;8.00;;;1.90;99.90;;;;;;5018525;28;20019;-85
2023/01/26 04:31:16;;;;;;;;;;;2.10;99.90;;;;;;5019327;28;20025;-83
2023/01/26 04:33:42;;;;;;;16.98;8.30;;;2.00;99.90;;;;;;5017467;28;19889;-85
2023/01/26 04:36:09;;;;;;;13.43;7.45;;;2.00;99.90;;;;;;5018460;28;20094;-84
2023/01/26 04:38:36;;;;;;;14.48;7.40;;;2.00;99.90;;;;;;5017089;28;20049;-85
2023/01/26 04:41:02;;;;;;;19.70;9.60;;;2.00;99.90;;;;;;5017219;28;20022;-84
2023/01/26 04:43:28;;;;;;;17.33;9.77;;;1.90;99.90;;;;;;5017169;28;20041;-84
2023/01/26 04:46:00;;;;;;;;;;;2.00;99.90;;;;;;5018163;28;20034;-84
2023/01/26 04:48:28;;;;;;;13.20;6.63;;;1.90;99.90;;;;;;5018528;28;19910;-85
2023/01/26 04:50:59;;;;;;;11.73;5.97;;;1.90;99.90;;;;;;5017884;28;20034;-84
2023/01/26 04:53:25;;;;;;;10.43;5.25;;;1.90;99.90;;;;;;5017816;28;20023;-84
2023/01/26 04:55:51;;;;;;;;;;;1.90;99.90;;;;;;5018069;28;20029;-83
2023/01/26 04:58:17;;;;;;;12.98;6.53;;;1.80;99.90;;;;;;5016782;28;19916;-83
2023/01/26 05:00:50;;;;;;;;;;;1.90;99.90;;;;;;5017407;28;20025;-82
2023/01/26 05:03:16;;;;;;;14.73;6.05;;;1.90;99.90;;;;;;4997747;28;19906;-82
2023/01/26 05:05:41;;;;;;;;;;;2.00;99.90;;;;;;4998146;28;20046;-83
2023/01/26 05:08:07;;;;;;;12.77;6.60;;;1.90;99.90;;;;;;4996626;28;19891;-82
2023/01/26 05:10:33;;;;;;;;;;;1.90;99.90;;;;;;4998128;28;20022;-84
2023/01/26 05:13:00;;;;;;;13.95;6.97;;;1.90;99.90;;;;;;4998322;28;19910;-84
2023/01/26 05:15:26;;;;;;;19.08;8.52;;;1.90;99.90;;;;;;4997778;28;20055;-82
2023/01/26 05:17:52;;;;;;;14.57;5.95;;;1.90;99.90;;;;;;4997876;28;20025;-83
2023/01/26 05:20:17;;;;;;;;;;;1.90;99.90;;;;;;4997353;28;20042;-83
2023/01/26 05:22:43;;;;;;;17.35;7.85;;;1.90;99.90;;;;;;4997710;28;19902;-84
2023/01/26 05:25:09;;;;;;;;;;;1.90;99.90;;;;;;4997661;28;20090;-84
2023/01/26 05:27:35;;;;;;;14.85;7.78;;;2.00;99.90;;;;;;4997491;28;19910;-83
2023/01/26 05:30:01;;;;;;;;;;;1.90;99.90;;;;;;4998369;28;20078;-83
2023/01/26 05:32:28;;;;;;;24.20;11.75;;;1.90;99.90;;;;;;4997903;28;19907;-82
2023/01/26 05:34:55;;;;;;;24.25;11.77;;;1.90;99.90;;;;;;4997419;28;20031;-83
2023/01/26 05:37:23;;;;;;;21.25;11.13;;;1.90;99.90;;;;;;4996847;28;20054;-82
2023/01/26 05:39:48;;;;;;;19.20;10.52;;;1.90;99.90;;;;;;4997706;28;20026;-81
2023/01/26 05:42:14;;;;;;;;;;;1.90;99.90;;;;;;4998072;28;20034;-81
2023/01/26 05:44:40;;;;;;;21.33;11.30;;;1.90;99.90;;;;;;4997695;28;19910;-82
2023/01/26 05:47:06;;;;;;;;;;;1.80;99.90;;;;;;4997903;28;20007;-83
2023/01/26 05:49:32;;;;;;;14.02;6.55;;;2.00;99.90;;;;;;4996696;28;19894;-84
2023/01/26 05:51:58;;;;;;;;;;;1.90;99.90;;;;;;4996716;28;20062;-84
2023/01/26 05:54:24;;;;;;;12.32;6.35;;;2.00;99.90;;;;;;4996047;28;19901;-84
2023/01/26 05:56:52;;;;;;;;;;;1.90;99.90;;;;;;5001155;28;20054;-83
2023/01/26 05:59:18;;;;;;;16.55;9.00;;;1.90;99.90;;;;;;5000541;28;19909;-83
2023/01/26 06:01:44;;;;;;;20.42;9.38;;;1.90;99.90;;;;;;5001007;28;20022;-83
2023/01/26 06:04:10;;;;;;;16.15;8.82;;;1.80;99.90;;;;;;5000981;28;20018;-82
2023/01/26 06:06:36;;;;;;;;;;;2.00;99.90;;;;;;5001568;28;20027;-83
2023/01/26 06:09:01;;;;;;;16.73;7.97;;;1.80;99.90;;;;;;5000386;28;19922;-82
2023/01/26 06:11:27;;;;;;;;;;;1.80;99.90;;;;;;5000473;28;20042;-82
2023/01/26 06:13:53;;;;;;;16.05;6.88;;;1.80;99.90;;;;;;5001362;28;19913;-82
2023/01/26 06:16:19;;;;;;;;;;;1.80;99.90;;;;;;5000518;28;20046;-83
2023/01/26 06:18:48;;;;;;;22.42;11.15;;;2.00;99.90;;;;;;5000787;28;19949;-82
2023/01/26 06:21:15;;;;;;;19.23;10.15;;;2.00;99.90;;;;;;4999627;28;20043;-83
2023/01/26 06:23:41;;;;;;;17.80;10.18;;;2.00;99.90;;;;;;5001513;28;20061;-82
2023/01/26 06:26:07;;;;;;;;;;;1.80;99.90;;;;;;5001153;28;20027;-83
2023/01/26 06:28:34;;;;;;;13.00;6.50;;;1.80;99.90;;;;;;5000709;28;19906;-82
2023/01/26 06:31:04;;;;;;;21.25;9.38;;;1.80;99.90;;;;;;5000291;28;19999;-82
2023/01/26 06:33:33;;;;;;;17.90;8.77;;;1.80;99.90;;;;;;5001010;28;20045;-83
2023/01/26 06:36:07;;;;;;;19.63;9.68;;;1.80;99.90;;;;;;5002525;28;20506;-81
2023/01/26 06:38:33;;;;;;;12.82;5.55;;;1.90;99.90;;;;;;5002438;28;20100;-84
2023/01/26 08:18:02;;;;;;;7.97;4.15;;;2.70;99.90;;;;;;1635676;23;20359;-79
2023/01/26 08:20:29;;;;;;;11.23;4.25;;;2.70;99.90;;;;;;4996637;28;20030;-83
2023/01/26 08:22:55;;;;;;;12.82;5.80;;;2.80;99.50;;;;;;5015513;28;20041;-84
2023/01/26 08:25:20;;;;;;;;;;;2.70;99.90;;;;;;5014645;28;20018;-83
2023/01/26 08:27:46;;;;;;;8.73;4.28;;;2.60;99.90;;;;;;4997271;28;19957;-83
2023/01/26 08:30:12;;;;;;;;;;;2.70;99.90;;;;;;4997942;28;20047;-82
2023/01/26 08:32:38;;;;;;;19.08;12.30;;;2.70;99.90;;;;;;4998667;28;20463;-80
2023/01/26 08:35:04;;;;;;;;;;;2.70;99.90;;;;;;4999572;28;20023;-83
2023/01/26 08:37:30;;;;;;;7.10;4.20;;;2.70;99.90;;;;;;4998775;28;19894;-83
2023/01/26 08:39:55;;;;;;;;;;;2.80;99.90;;;;;;4999097;28;20011;-83
2023/01/26 08:42:21;;;;;;;9.27;4.82;;;2.80;99.90;;;;;;4997736;28;19890;-83
2023/01/26 08:44:47;;;;;;;;;;;2.80;99.90;;;;;;4998945;28;20050;-83
2023/01/26 08:47:13;;;;;;;74.28;35.72;;;2.60;99.90;;;;;;4997505;28;19957;-83
2023/01/26 08:49:39;;;;;;;;;;;2.70;99.90;;;;;;4998539;28;20031;-84
2023/01/26 08:52:05;;;;;;;30.73;15.38;;;2.90;99.90;;;;;;4998237;28;20005;-82
2023/01/26 08:54:30;;;;;;;;;;;2.80;99.90;;;;;;4997806;28;20051;-84
2023/01/26 08:56:57;;;;;;;17.52;8.02;;;2.80;99.90;;;;;;4997768;28;19921;-84
2023/01/26 08:59:22;;;;;;;13.65;7.35;;;2.70;99.90;;;;;;4998355;28;20007;-84
2023/01/26 09:01:48;;;;;;;;;;;2.90;99.90;;;;;;4998052;28;20037;-84
2023/01/26 09:04:14;;;;;;;12.23;6.47;;;3.00;99.90;;;;;;4998267;28;19890;-83
2023/01/26 09:06:40;;;;;;;;;;;3.00;99.90;;;;;;4998307;28;20030;-84
2023/01/26 09:09:11;;;;;;;18.60;11.80;;;2.90;99.90;;;;;;4998170;28;19918;-84
2023/01/26 09:11:40;;;;;;;11.10;6.50;;;2.90;99.90;;;;;;4997367;28;20011;-83
2023/01/26 09:14:06;;;;;;;11.85;5.88;;;3.10;99.90;;;;;;5013565;28;20031;-83
2023/01/26 09:16:32;;;;;;;;;;;3.20;99.90;;;;;;4997391;28;20022;-82
2023/01/26 09:18:58;;;;;;;16.58;8.20;;;3.10;99.90;;;;;;4997489;28;19918;-82
2023/01/26 09:21:23;;;;;;;;;;;3.00;99.90;;;;;;4998018;28;20030;-83
2023/01/26 09:23:50;;;;;;;11.65;6.57;;;3.20;99.90;;;;;;4997495;28;19913;-83
2023/01/26 09:26:16;;;;;;;12.93;6.57;;;3.10;99.70;;;;;;4998008;28;20019;-84
2023/01/26 09:28:42;;;;;;;14.32;7.15;;;3.10;99.90;;;;;;4997685;28;20069;-83
2023/01/26 09:31:09;;;;;;;;;;;3.20;99.90;;;;;;5000581;28;20036;-83
2023/01/26 09:33:36;;;;;;;13.00;6.18;;;3.20;99.90;;;;;;5001172;28;19906;-83
2023/01/26 09:36:07;;;;;;;14.73;6.55;;;3.20;99.70;;;;;;5001002;28;20027;-83
2023/01/26 09:38:33;;;;;;;11.90;6.10;;;3.30;97.20;;;;;;5001572;28;20027;-83
2023/01/26 09:41:38;;;;;;;13.48;7.43;;;3.30;95.10;;;;;;5002131;28;20110;-83
2023/01/26 09:44:10;;;;;;;11.65;5.82;;;3.30;97.50;;;;;;5017715;28;20039;-82
2023/01/26 09:46:52;;;;;;;10.80;5.38;;;3.30;94.90;;;;;;5002380;28;20572;-83
2023/01/26 09:49:45;;;;;;;13.70;7.88;;;3.30;95.20;;;;;;5017946;28;20024;-82
2023/01/26 09:52:25;;;;;;;11.65;5.35;;;3.30;98.00;;;;;;4998136;28;20027;-83
2023/01/26 09:54:54;;;;;;;9.52;4.95;;;3.30;96.30;;;;;;5002046;28;20007;-82
2023/01/26 09:57:40;;;;;;;11.95;6.53;;;3.40;97.40;;;;;;5001944;28;20022;-83
2023/01/26 10:00:10;;;;;;;8.60;4.68;;;3.40;99.90;;;;;;5002410;28;20007;-81
2023/01/26 10:03:22;;;;;;;10.60;5.10;;;3.30;98.50;;;;;;5002820;28;20011;-83
2023/01/26 10:06:13;;;;;;;11.00;5.22;;;3.40;98.80;;;;;;4994229;28;20035;-83
2023/01/26 10:08:41;;;;;;;13.98;6.30;;;3.30;99.90;;;;;;5000538;28;20026;-83
2023/01/26 10:11:20;;;;;;;13.35;6.35;;;3.40;99.90;;;;;;5015878;28;20018;-83
2023/01/26 10:13:52;;;;;;;9.98;5.88;;;3.30;99.90;;;;;;5000491;28;20018;-83
2023/01/26 10:16:20;;;;;;;13.68;7.10;;;3.30;99.90;;;;;;5000351;28;20035;-83
2023/01/26 10:18:55;;;;;;;13.52;6.05;;;3.10;99.90;;;;;;5001013;28;20050;-84
2023/01/26 10:21:25;;;;;;;16.60;7.13;;;3.20;99.90;;;;;;5000484;28;20022;-82
2023/01/26 10:23:51;;;;;;;13.88;6.82;;;3.30;99.90;;;;;;5000452;28;20067;-82
2023/01/26 10:26:21;;;;;;;12.65;6.78;;;3.20;99.90;;;;;;5001051;28;20006;-82
2023/01/26 10:28:50;;;;;;;14.57;6.70;;;3.20;99.90;;;;;;4997829;28;20035;-80
2023/01/26 10:31:27;;;;;;;18.02;8.70;;;3.20;99.90;;;;;;4998172;28;20030;-82
2023/01/26 10:33:58;;;;;;;19.60;10.15;;;3.10;99.90;;;;;;4998237;28;20046;-82
2023/01/26 10:36:24;;;;;;;20.50;11.40;;;3.00;99.90;;;;;;4998005;28;20021;-81
2023/01/26 10:38:51;;;;;;;21.58;9.88;;;3.20;99.90;;;;;;5000830;28;20030;-82
2023/01/26 10:41:27;;;;;;;16.88;9.60;;;3.20;99.90;;;;;;4999544;28;20071;-82
2023/01/26 10:43:58;;;;;;;17.70;8.68;;;3.10;99.90;;;;;;4999412;28;20030;-82
2023/01/26 10:46:33;;;;;;;16.27;8.60;;;3.20;99.90;;;;;;4999836;28;20053;-83
2023/01/26 10:49:03;;;;;;;19.05;9.65;;;3.30;99.90;;;;;;5000233;28;20049;-83
2023/01/26 10:51:31;;;;;;;16.25;8.65;;;3.30;99.90;;;;;;5000739;28;20023;-82
2023/01/26 10:54:25;;;;;;;19.40;7.82;;;3.30;99.90;;;;;;5000451;28;20011;-82
2023/01/26 10:57:01;;;;;;;17.40;9.00;;;3.30;99.90;;;;;;4999067;28;20057;-83
2023/01/26 10:59:26;;;;;;;15.32;7.72;;;3.20;99.90;;;;;;5000767;28;20023;-81
2023/01/26 11:02:00;;;;;;;;;;;3.40;99.90;;;;;;5016089;28;20058;-83
2023/01/26 11:04:27;;;;;;;16.27;8.02;;;3.40;99.90;;;;;;4999957;28;19897;-83
2023/01/26 11:06:53;;;;;;;12.25;6.68;;;3.30;99.90;;;;;;5000120;28;20047;-83
2023/01/26 11:09:21;;;;;;;12.30;7.50;;;3.50;99.90;;;;;;5000247;28;20050;-83
2023/01/26 11:12:02;;;;;;;12.15;6.95;;;3.30;99.90;;;;;;4999237;28;20018;-83
2023/01/26 11:14:30;;;;;;;15.82;6.75;;;3.40;99.90;;;;;;4999380;28;20027;-83
2023/01/26 11:17:24;;;;;;;12.73;6.75;;;3.50;99.90;;;;;;4999422;28;20027;-82
2023/01/26 11:20:09;;;;;;;11.93;6.97;;;3.40;99.90;;;;;;4999639;28;20055;-82
2023/01/26 11:23:03;;;;;;;13.63;7.53;;;3.60;99.90;;;;;;4999447;28;20051;-83
2023/01/26 11:26:14;;;;;;;15.77;8.05;;;3.70;99.90;;;;;;4999984;28;20030;-83
2023/01/26 11:29:01;;;;;;;15.15;8.13;;;3.80;99.80;;;;;;4984477;28;20053;-81
2023/01/26 11:31:46;;;;;;;14.70;7.57;;;3.80;99.90;;;;;;4999859;28;20031;-82
2023/01/26 11:34:32;;;;;;;13.00;6.30;;;3.90;99.50;;;;;;4999727;28;20014;-83
2023/01/26 11:36:57;;;;;;;13.50;7.40;;;3.80;99.90;;;;;;4999443;28;20045;-83
2023/01/26 11:39:29;;;;;;;;;;;3.80;99.90;;;;;;4999650;28;20022;-83
2023/01/26 11:42:16;;;;;;;16.27;7.65;;;3.80;99.90;;;;;;4998813;28;19905;-83
2023/01/26 11:45:19;;;;;;;15.90;7.80;;;3.90;99.90;;;;;;4999348;28;20034;-81
2023/01/26 11:48:07;;;;;;;14.27;7.63;;;4.00;99.90;;;;;;4999621;28;20051;-83
2023/01/26 11:50:47;;;;;;;13.00;6.97;;;4.10;99.90;;;;;;4999114;28;20046;-82
2023/01/26 11:53:58;;;;;;;12.43;7.45;;;4.00;99.90;;;;;;5014440;28;20038;-83
2023/01/26 11:56:36;;;;;;;13.82;7.40;;;4.00;99.90;;;;;;4998866;28;20031;-83
2023/01/26 11:59:14;;;;;;;15.27;7.32;;;4.00;99.90;;;;;;4998951;28;20022;-82
2023/01/26 12:01:45;;;;;;;19.65;8.85;;;4.00;99.90;;;;;;4998962;28;20018;-82
2023/01/26 12:04:19;;;;;;;12.75;7.32;;;4.10;99.90;;;;;;4999134;28;20011;-83
2023/01/26 12:06:54;;;;;;;26.30;10.00;;;4.10;99.90;;;;;;4998613;28;20081;-83
2023/01/26 12:09:37;;;;;;;33.75;19.27;;;4.10;99.90;;;;;;4998307;28;20011;-80
2023/01/26 12:12:34;;;;;;;21.42;14.75;;;4.20;99.90;;;;;;4997393;28;20018;-82
2023/01/26 12:15:05;;;;;;;15.27;9.70;;;4.30;99.90;;;;;;4999359;28;20035;-83
2023/01/26 12:17:57;;;;;;;13.02;7.32;;;4.20;99.90;;;;;;4997715;28;20030;-81
2023/01/26 12:20:35;;;;;;;17.90;9.57;;;4.20;99.90;;;;;;4997991;28;20050;-82
2023/01/26 12:23:07;;;;;;;17.48;10.00;;;4.30;99.90;;;;;;4998269;28;20038;-83
2023/01/26 12:25:50;;;;;;;16.05;8.55;;;4.20;99.90;;;;;;4997536;28;20010;-82
2023/01/26 12:28:39;;;;;;;16.77;7.47;;;4.10;99.90;;;;;;4999012;28;20019;-82
2023/01/26 12:31:12;;;;;;;18.42;10.80;;;4.20;99.90;;;;;;4998948;28;20054;-81
2023/01/26 12:33:38;;;;;;;20.63;10.40;;;4.00;99.90;;;;;;4997755;28;20015;-83
2023/01/26 12:36:31;;;;;;;18.05;9.27;;;4.10;99.90;;;;;;4997486;28;20054;-81
2023/01/26 12:39:15;;;;;;;21.25;11.75;;;4.10;99.90;;;;;;4998887;28;20041;-82
2023/01/26 12:41:54;;;;;;;18.50;11.30;;;4.00;99.90;;;;;;4997919;28;20094;-82
2023/01/26 12:44:42;;;;;;;24.77;12.50;;;4.00;99.90;;;;;;4998644;28;20019;-82
2023/01/26 12:47:21;;;;;;;20.92;11.30;;;4.00;99.90;;;;;;4998219;28;20054;-81
2023/01/26 12:50:10;;;;;;;17.40;9.75;;;4.00;99.90;;;;;;4998980;28;20027;-83
2023/01/26 12:52:45;;;;;;;17.35;10.05;;;3.80;99.90;;;;;;4998187;28;20019;-81
2023/01/26 12:55:18;;;;;;;19.02;11.18;;;3.80;99.90;;;;;;4998232;28;20035;-81
2023/01/26 12:57:54;;;;;;;21.05;11.68;;;3.80;99.90;;;;;;4998704;28;20015;-82
2023/01/26 13:00:35;;;;;;;25.15;11.10;;;3.80;99.90;;;;;;4998944;28;20030;-82
2023/01/26 13:03:16;;;;;;;25.73;13.05;;;3.80;99.90;;;;;;4998979;28;20011;-82
2023/01/26 13:06:01;;;;;;;27.48;12.93;;;3.80;99.90;;;;;;4997811;28;20034;-82
2023/01/26 13:08:30;;;;;;;21.15;12.02;;;3.80;99.90;;;;;;4998218;28;20011;-83
2023/01/26 13:10:58;;;;;;;43.35;23.48;;;3.70;99.90;;;;;;4997676;28;20030;-83
2023/01/26 13:13:55;;;;;;;29.58;17.10;;;3.70;99.90;;;;;;4998297;28;20062;-82
2023/01/26 13:16:24;;;;;;;;;;;3.80;99.90;;;;;;4998506;28;20033;-82
2023/01/26 13:18:55;;;;;;;36.80;22.65;;;3.80;99.90;;;;;;4996713;28;19926;-83
2023/01/26 13:21:39;;;;;;;30.95;16.75;;;3.70;99.90;;;;;;4997747;28;20540;-84
2023/01/26 13:24:17;;;;;;;19.38;11.35;;;3.30;99.90;;;;;;4998563;28;20011;-83
2023/01/26 13:26:46;;;;;;;22.70;13.55;;;3.60;99.90;;;;;;4997364;28;20034;-82
2023/01/26 13:29:31;;;;;;;26.08;14.88;;;3.60;99.90;;;;;;4996513;28;20014;-84
2023/01/26 13:32:18;;;;;;;19.83;10.55;;;3.50;99.90;;;;;;4998307;28;20027;-83
2023/01/26 13:34:56;;;;;;;36.47;17.80;;;3.40;99.90;;;;;;4996445;28;20062;-84
2023/01/26 13:38:12;;;;;;;20.10;10.57;;;3.50;99.90;;;;;;4998240;28;20014;-84
2023/01/26 13:40:45;;;;;;;33.58;17.35;;;3.60;99.90;;;;;;4956566;29;20015;-82
2023/01/26 13:43:19;;;;;;;29.25;14.40;;;3.50;99.90;;;;;;4994857;28;20030;-83
2023/01/26 13:46:07;;;;;;;28.95;15.95;;;3.40;99.90;;;;;;4997835;28;20011;-84
2023/01/26 13:48:47;;;;;;;23.58;12.82;;;3.40;99.90;;;;;;4998691;28;20073;-83
2023/01/26 13:51:23;;;;;;;25.05;12.95;;;3.30;99.90;;;;;;4999074;28;20042;-83
2023/01/26 13:53:57;;;;;;;36.85;18.05;;;3.30;99.90;;;;;;4999496;28;20030;-84
2023/01/26 13:56:27;;;;;;;39.08;16.70;;;3.20;99.90;;;;;;4999695;28;20027;-84
2023/01/26 13:59:02;;;;;;;63.08;27.30;;;3.20;99.90;;;;;;4999343;28;20031;-80
2023/01/26 14:01:28;;;;;;;51.53;23.52;;;3.20;99.90;;;;;;4998762;28;20038;-83
2023/01/26 14:04:03;;;;;;;;;;;3.30;99.90;;;;;;4998970;28;20015;-83
2023/01/26 14:06:29;;;;;;;35.80;20.98;;;3.20;99.90;;;;;;4998843;28;19913;-83
2023/01/26 14:08:56;;;;;;;27.50;13.15;;;3.20;99.90;;;;;;4999290;28;20003;-82
2023/01/26 14:11:24;;;;;;;21.63;12.32;;;3.20;99.90;;;;;;4998790;28;20031;-83
2023/01/26 14:13:52;;;;;;;23.33;13.23;;;3.10;99.90;;;;;;4998911;28;20090;-80
2023/01/26 14:16:23;;;;;;;26.30;15.80;;;3.10;99.90;;;;;;4999784;28;20057;-83
2023/01/26 14:18:49;;;;;;;38.85;20.80;;;3.10;99.90;;;;;;5002694;28;20054;-81
2023/01/26 14:21:17;;;;;;;;;;;3.00;99.90;;;;;;5003275;28;20018;-83
2023/01/26 14:23:43;;;;;;;25.20;12.48;;;3.00;99.90;;;;;;5002271;28;19978;-85
2023/01/26 14:26:17;;;;;;;;;;;3.00;99.90;;;;;;5002584;28;20069;-84
2023/01/26 14:28:44;;;;;;;30.73;17.33;;;2.90;99.90;;;;;;5001832;28;19910;-82
2023/01/26 14:31:19;;;;;;;21.27;12.20;;;2.80;99.90;;;;;;5002714;28;20033;-83
2023/01/26 14:33:47;;;;;;;25.38;12.68;;;2.70;99.90;;;;;;5001959;28;20010;-82
2023/01/26 14:36:18;;;;;;;57.40;26.83;;;2.70;99.90;;;;;;5001369;28;20051;-84
2023/01/26 14:38:49;;;;;;;46.67;22.92;;;2.50;99.90;;;;;;5000077;28;20035;-82
2023/01/26 14:41:29;;;;;;;26.50;13.40;;;2.70;99.90;;;;;;5000277;28;20033;-83
2023/01/26 14:44:00;;;;;;;20.70;10.48;;;2.70;99.90;;;;;;5002265;28;20049;-84
2023/01/26 14:47:04;;;;;;;20.05;11.32;;;2.70;99.90;;;;;;5001928;28;20019;-83
2023/01/26 14:49:42;;;;;;;29.98;14.23;;;2.40;99.90;;;;;;5001823;28;20026;-84
2023/01/26 14:52:26;;;;;;;25.08;13.77;;;2.70;99.90;;;;;;5002424;28;20026;-83
2023/01/26 14:54:55;;;;;;;40.17;20.58;;;2.70;99.90;;;;;;5001628;28;20039;-81
2023/01/26 14:57:26;;;;;;;30.15;16.55;;;2.70;99.90;;;;;;5002022;28;20059;-83
2023/01/26 14:59:55;;;;;;;29.20;13.35;;;2.60;99.90;;;;;;5001792;28;20094;-84
2023/01/26 15:02:24;;;;;;;24.00;13.25;;;2.60;99.90;;;;;;5002044;28;20038;-81
2023/01/26 15:32:01;;;;;;;21.58;10.73;;;2.30;99.90;;;;;;5188439;23;20321;-83
2023/01/26 15:34:39;;;;;;;22.10;12.17;;;2.20;99.90;;;;;;4997606;28;20111;-85
2023/01/26 15:37:29;;;;;;;38.03;21.45;;;2.20;99.90;;;;;;4998553;28;20049;-84
2023/01/26 15:39:55;;;;;;;51.20;33.17;;;2.10;99.90;;;;;;5000397;28;20015;-83
2023/01/26 15:42:23;;;;;;;;;;;2.30;99.90;;;;;;5000339;28;20046;-84
2023/01/26 15:44:49;;;;;;;45.10;26.08;;;2.20;99.90;;;;;;4998848;28;19902;-85
2023/01/26 15:47:15;;;;;;;;;;;2.10;99.90;;;;;;4999144;28;20038;-84
2023/01/26 15:49:41;;;;;;;156.82;66.05;;;2.10;99.90;;;;;;4999752;28;19902;-84
2023/01/26 15:52:28;;;;;;;142.88;80.03;;;2.10;99.90;;;;;;4999073;28;20023;-84
2023/01/26 15:54:55;;;;;;;30.08;18.20;;;2.10;99.90;;;;;;4998151;28;20518;-84
2023/01/26 15:57:21;;;;;;;37.92;23.70;;;2.00;99.90;;;;;;4999073;28;20019;-84
2023/01/26 15:59:47;;;;;;;;;;;2.10;99.90;;;;;;4998686;28;20507;-84
2023/01/26 16:02:21;;;;;;;29.20;15.68;;;2.00;99.90;;;;;;4999207;28;19910;-85
2023/01/26 16:04:47;;;;;;;25.40;15.20;;;2.00;99.90;;;;;;4999727;28;20010;-84
2023/01/26 16:07:15;;;;;;;28.17;15.32;;;2.00;99.90;;;;;;4999195;28;20027;-85
2023/01/26 16:09:41;;;;;;;22.05;13.43;;;2.00;99.90;;;;;;4998319;28;20022;-85
2023/01/26 16:12:18;;;;;;;27.08;15.15;;;2.00;99.90;;;;;;4998200;28;20046;-84
2023/01/26 16:14:44;;;;;;;27.98;16.42;;;2.00;99.90;;;;;;4999023;28;20018;-84
2023/01/26 16:17:14;;;;;;;;;;;2.00;99.90;;;;;;4998317;28;20031;-84
2023/01/26 16:19:43;;;;;;;32.45;16.23;;;2.00;99.90;;;;;;4997555;28;19945;-83
2023/01/26 16:22:10;;;;;;;33.22;19.38;;;1.90;99.90;;;;;;4999077;28;20038;-84
2023/01/26 16:24:39;;;;;;;52.90;28.65;;;2.00;99.90;;;;;;4998024;28;20090;-84
2023/01/26 16:27:06;;;;;;;52.70;28.48;;;2.00;99.90;;;;;;4999109;28;20054;-84
2023/01/26 16:29:32;;;;;;;58.13;34.90;;;1.90;99.90;;;;;;5000560;28;20038;-80
2023/01/26 16:32:01;;;;;;;24.23;13.98;;;2.00;99.90;;;;;;4999108;28;20035;-84
2023/01/26 16:34:28;;;;;;;31.02;14.63;;;1.90;99.90;;;;;;4997953;28;20031;-85
2023/01/26 16:36:55;;;;;;;27.50;15.00;;;2.20;99.90;;;;;;4997435;28;20042;-85
2023/01/26 16:39:21;;;;;;;37.92;20.92;;;2.10;99.90;;;;;;4998174;28;20027;-84
2023/01/26 16:41:47;;;;;;;;;;;2.10;99.90;;;;;;4996931;28;20098;-84
2023/01/26 16:44:16;;;;;;;37.00;19.55;;;2.00;99.90;;;;;;4996958;28;19899;-84
2023/01/26 16:46:43;;;;;;;37.95;19.50;;;2.00;99.90;;;;;;4997224;28;20161;-83
2023/01/26 16:49:15;;;;;;;548.53;260.42;;;2.00;99.90;;;;;;4997944;28;20077;-84